Terminal Aerodrome Forecast
Issued by NWS Missoula, MT

Home | Current Version | Previous Version | Text Only | Print | Product List | Glossary On
Versions: 1 2 3 4 5 6 7 8 9 10 11 12 13 14 15 16 17 18
000
FTUS45 KMSO 251745
TAFBTM
TAF
KBTM 251745Z 2518/2618 35007KT P6SM BKN120
     FM252000 31015KT P6SM VCSH BKN070 OVC150
     FM260000 VRB06G25KT P6SM VCTS BKN070CB OVC150
     FM260400 15007KT P6SM -SHRA OVC070
     FM260800 VRB06KT P6SM BKN100=

USA.gov is the U.S. government's official web portal to all federal, state and local government web resources and services.